createdAt,value
2018-12-06T00:02:00.316Z,8.33
2018-12-06T00:05:06.177Z,8.70
2018-12-06T00:08:19.363Z,8.10
2018-12-06T00:11:23.868Z,8.90
2018-12-06T00:14:28.486Z,8.77
2018-12-06T00:17:33.093Z,9.80
2018-12-06T00:20:37.707Z,9.87
2018-12-06T00:23:42.250Z,9.47
2018-12-06T00:26:46.972Z,11.13
2018-12-06T00:30:08.432Z,11.63
2018-12-06T00:33:13.052Z,10.73
2018-12-06T00:36:17.613Z,11.43
2018-12-06T00:39:22.274Z,11.13
2018-12-06T00:42:26.859Z,11.47
2018-12-06T00:45:31.390Z,11.93
2018-12-06T00:48:36.121Z,11.83
2018-12-06T00:51:40.714Z,12.13
2018-12-06T00:54:45.278Z,13.37
2018-12-06T00:57:49.793Z,11.83
2018-12-06T01:00:54.902Z,12.27
2018-12-06T01:03:59.488Z,11.27
2018-12-06T01:07:04.190Z,11.50
2018-12-06T01:10:09.013Z,12.23
2018-12-06T01:13:13.583Z,10.10
2018-12-06T01:16:18.137Z,11.13
2018-12-06T01:19:22.791Z,10.33
2018-12-06T01:22:27.560Z,9.97
2018-12-06T01:25:32.260Z,10.63
2018-12-06T01:28:36.828Z,10.20
2018-12-06T01:31:41.499Z,10.20
2018-12-06T01:34:45.952Z,9.90
2018-12-06T01:37:50.655Z,9.93
2018-12-06T01:40:55.211Z,11.27
2018-12-06T01:43:59.967Z,11.07
2018-12-06T01:47:04.675Z,10.47
2018-12-06T01:50:09.494Z,10.97
2018-12-06T01:53:13.973Z,13.20
2018-12-06T01:56:18.552Z,10.80
2018-12-06T01:59:23.222Z,11.47
2018-12-06T02:02:27.763Z,12.57
2018-12-06T02:05:32.303Z,12.80
2018-12-06T02:08:36.875Z,14.17
2018-12-06T02:11:41.577Z,12.87
2018-12-06T02:14:46.063Z,14.10
2018-12-06T02:17:50.582Z,13.87
2018-12-06T02:20:55.108Z,13.23
2018-12-06T02:23:59.694Z,13.87
2018-12-06T02:27:04.381Z,13.90
2018-12-06T02:30:09.413Z,16.00
2018-12-06T02:33:13.967Z,14.87
2018-12-06T02:36:18.578Z,14.67
2018-12-06T02:39:23.090Z,14.80
2018-12-06T02:42:27.905Z,15.43
2018-12-06T02:45:32.474Z,16.53
2018-12-06T02:48:58.929Z,14.03
2018-12-06T02:52:03.431Z,14.83
2018-12-06T02:55:08.392Z,14.83
2018-12-06T02:58:13.081Z,14.27
2018-12-06T03:01:17.749Z,15.30
2018-12-06T03:04:22.443Z,15.30
2018-12-06T03:07:27.181Z,15.43
2018-12-06T03:10:31.760Z,14.53
2018-12-06T03:13:36.375Z,13.70
2018-12-06T03:16:40.991Z,15.40
2018-12-06T03:19:45.608Z,14.23
2018-12-06T03:22:50.377Z,15.70
2018-12-06T03:25:55.136Z,16.03
2018-12-06T03:28:59.677Z,14.43
2018-12-06T03:32:04.216Z,14.70
2018-12-06T03:35:08.778Z,14.97
2018-12-06T03:38:13.799Z,14.70
2018-12-06T03:41:18.560Z,14.13
2018-12-06T03:44:23.136Z,15.57
2018-12-06T03:47:27.626Z,15.63
2018-12-06T03:50:32.320Z,14.70
2018-12-06T03:53:36.804Z,14.43
2018-12-06T03:56:41.300Z,14.23
2018-12-06T03:59:45.877Z,14.17
2018-12-06T04:02:50.453Z,14.60
2018-12-06T04:05:55.032Z,14.37
2018-12-06T04:08:59.768Z,16.10
2018-12-06T04:12:04.351Z,14.77
2018-12-06T04:15:09.021Z,14.90
2018-12-06T04:18:13.547Z,14.93
2018-12-06T04:21:18.013Z,15.70
2018-12-06T04:24:22.528Z,15.50
2018-12-06T04:27:27.233Z,15.73
2018-12-06T04:30:31.773Z,16.23
2018-12-06T04:33:36.339Z,15.67
2018-12-06T04:36:40.970Z,15.93
2018-12-06T04:39:45.767Z,15.13
2018-12-06T04:42:50.354Z,15.20
2018-12-06T04:45:55.005Z,15.23
2018-12-06T04:48:59.490Z,15.10
2018-12-06T04:52:04.051Z,14.47
2018-12-06T04:55:09.398Z,15.53
2018-12-06T04:58:13.980Z,14.07
2018-12-06T05:01:18.604Z,16.13
2018-12-06T05:04:24.410Z,15.20
2018-12-06T05:07:29.067Z,14.97
2018-12-06T05:10:33.610Z,15.80
2018-12-06T05:13:38.252Z,14.27
2018-12-06T05:16:42.763Z,16.27
2018-12-06T05:19:47.305Z,15.07
2018-12-06T05:22:51.922Z,14.00
2018-12-06T05:25:56.532Z,15.20
2018-12-06T05:29:01.248Z,15.37
2018-12-06T05:32:05.831Z,14.90
2018-12-06T05:35:10.547Z,14.40
2018-12-06T05:38:15.213Z,15.03
2018-12-06T05:41:19.765Z,14.87
2018-12-06T05:44:24.328Z,15.17
2018-12-06T05:47:28.836Z,16.33
2018-12-06T05:50:33.385Z,15.63
2018-12-06T05:53:38.363Z,16.47
2018-12-06T05:56:42.870Z,18.83
2018-12-06T05:59:47.463Z,18.90
2018-12-06T06:02:52.022Z,18.87
2018-12-06T06:05:56.527Z,17.83
2018-12-06T06:09:02.392Z,17.97
2018-12-06T06:12:06.983Z,17.27
2018-12-06T06:15:11.960Z,17.27
2018-12-06T06:18:19.515Z,15.97
2018-12-06T06:21:24.121Z,16.33
2018-12-06T06:24:29.194Z,16.50
2018-12-06T06:27:33.799Z,17.33
2018-12-06T06:30:38.403Z,16.47
2018-12-06T06:33:43.057Z,16.30
2018-12-06T06:36:47.713Z,15.73
2018-12-06T06:39:52.210Z,14.93
2018-12-06T06:42:57.075Z,16.07
2018-12-06T06:46:01.572Z,15.67
2018-12-06T06:49:13.563Z,16.33
2018-12-06T06:52:12.781Z,15.83
2018-12-06T06:55:17.518Z,15.43
2018-12-06T06:58:22.014Z,14.63
2018-12-06T07:01:26.735Z,15.00
2018-12-06T07:04:31.269Z,15.13
2018-12-06T07:07:35.843Z,16.07
2018-12-06T07:10:40.410Z,14.03
2018-12-06T07:13:44.958Z,15.30
2018-12-06T07:16:49.585Z,15.07
2018-12-06T07:19:54.262Z,14.90
2018-12-06T07:22:58.779Z,14.63
2018-12-06T07:26:03.311Z,15.47
2018-12-06T07:29:07.901Z,15.37
2018-12-06T07:32:12.517Z,15.83
2018-12-06T07:35:17.277Z,16.27
2018-12-06T07:38:22.665Z,15.03
2018-12-06T07:41:27.391Z,16.07
2018-12-06T07:44:32.009Z,17.17
2018-12-06T07:47:40.311Z,16.03
2018-12-06T07:50:45.000Z,14.60
2018-12-06T07:53:50.222Z,15.13
2018-12-06T08:00:53.453Z,17.17
2018-12-06T08:03:58.050Z,16.37
2018-12-06T08:07:03.085Z,15.73
2018-12-06T08:10:08.868Z,17.00
2018-12-06T08:13:13.637Z,16.77
2018-12-06T08:16:18.284Z,16.17
2018-12-06T08:19:22.866Z,15.93
2018-12-06T08:22:27.927Z,15.30
2018-12-06T08:25:36.889Z,15.97
2018-12-06T08:28:41.652Z,16.20
2018-12-06T08:31:48.045Z,17.50
2018-12-06T08:34:52.578Z,16.90
2018-12-06T08:38:00.099Z,16.90
2018-12-06T08:41:04.625Z,16.07
2018-12-06T08:44:09.165Z,15.53
2018-12-06T08:47:13.721Z,16.33
2018-12-06T08:50:19.083Z,16.30
2018-12-06T08:53:23.685Z,17.40
2018-12-06T08:56:28.338Z,17.40
2018-12-06T08:59:32.830Z,16.13
2018-12-06T09:02:38.032Z,14.93
2018-12-06T09:05:42.625Z,15.83
2018-12-06T09:08:48.224Z,17.40
2018-12-06T09:11:52.782Z,17.73
2018-12-06T09:14:57.238Z,19.50
2018-12-06T09:18:02.301Z,18.93
2018-12-06T09:21:06.864Z,19.00
2018-12-06T09:24:11.355Z,18.77
2018-12-06T09:27:16.650Z,32.07
2018-12-06T09:30:21.288Z,19.60
2018-12-06T09:33:25.920Z,17.90
2018-12-06T09:36:30.631Z,18.60
2018-12-06T09:39:35.382Z,19.73
2018-12-06T09:42:40.125Z,18.30
2018-12-06T09:45:44.876Z,16.17
2018-12-06T09:48:49.403Z,14.77
2018-12-06T09:51:55.414Z,15.30
2018-12-06T09:55:00.045Z,16.10
2018-12-06T09:58:04.617Z,16.27
2018-12-06T10:01:09.188Z,16.10
2018-12-06T10:04:14.901Z,14.70
2018-12-06T10:07:19.494Z,16.37
2018-12-06T10:10:24.017Z,16.80
2018-12-06T10:13:28.592Z,16.07
2018-12-06T10:16:34.189Z,16.03
2018-12-06T10:19:43.322Z,16.57
2018-12-06T10:22:47.994Z,16.17
2018-12-06T10:25:52.614Z,14.47
2018-12-06T10:28:57.175Z,15.83
2018-12-06T10:32:02.110Z,16.30
2018-12-06T10:35:07.032Z,17.37
2018-12-06T10:38:13.566Z,18.43
2018-12-06T10:41:18.078Z,18.33
2018-12-06T10:44:32.544Z,17.70
2018-12-06T10:47:42.553Z,15.90
2018-12-06T10:50:51.674Z,15.60
2018-12-06T10:53:56.219Z,17.10
2018-12-06T10:57:00.811Z,17.67
2018-12-06T11:00:15.039Z,16.73
2018-12-06T11:06:54.737Z,18.00
2018-12-06T11:10:00.509Z,16.27
2018-12-06T11:13:05.108Z,32.87
2018-12-06T11:16:09.848Z,17.97
2018-12-06T11:19:14.346Z,18.70
2018-12-06T11:22:18.852Z,17.97
2018-12-06T11:25:27.476Z,17.00
2018-12-06T11:28:32.465Z,16.53
2018-12-06T11:31:37.134Z,19.27
2018-12-06T11:34:41.823Z,18.70
2018-12-06T11:41:08.050Z,18.30
2018-12-06T11:44:12.602Z,17.97
2018-12-06T11:47:17.225Z,16.87
2018-12-06T11:50:21.833Z,18.07
2018-12-06T11:53:26.432Z,19.87
2018-12-06T11:56:30.944Z,19.93
2018-12-06T11:59:35.501Z,26.68
2018-12-06T12:02:40.043Z,21.90
2018-12-06T12:08:59.963Z,20.10
2018-12-06T12:12:04.617Z,22.13
2018-12-06T12:15:09.560Z,18.07
2018-12-06T12:18:14.177Z,19.40
2018-12-06T12:21:19.065Z,19.47
2018-12-06T12:24:23.592Z,21.80
2018-12-06T12:27:28.224Z,20.20
2018-12-06T12:30:32.778Z,21.27
2018-12-06T12:33:37.694Z,22.17
2018-12-06T12:36:42.294Z,19.47
2018-12-06T12:39:46.920Z,18.63
2018-12-06T12:42:51.750Z,19.07
2018-12-06T12:45:56.422Z,19.57
2018-12-06T12:49:01.057Z,20.63
2018-12-06T12:52:05.635Z,17.97
2018-12-06T12:55:10.206Z,19.47
2018-12-06T12:58:14.681Z,19.20
2018-12-06T13:01:19.294Z,19.57
2018-12-06T13:04:23.864Z,19.03
2018-12-06T13:07:28.419Z,19.33
2018-12-06T13:10:32.915Z,20.03
2018-12-06T13:13:37.638Z,19.90
2018-12-06T13:16:42.191Z,18.33
2018-12-06T13:19:46.821Z,18.33
2018-12-06T13:22:51.425Z,18.23
2018-12-06T13:25:56.154Z,18.00
2018-12-06T13:29:00.745Z,18.77
2018-12-06T13:32:05.828Z,18.90
2018-12-06T13:35:10.531Z,20.30
2018-12-06T13:38:15.157Z,20.83
2018-12-06T13:41:19.740Z,20.87
2018-12-06T13:44:24.338Z,21.93
2018-12-06T13:47:31.598Z,21.53
2018-12-06T13:50:36.353Z,20.03
2018-12-06T13:53:41.451Z,20.07
2018-12-06T13:56:46.199Z,24.30
2018-12-06T13:59:50.775Z,21.77
2018-12-06T14:02:55.387Z,26.43
2018-12-06T14:05:59.992Z,22.03
2018-12-06T14:09:07.138Z,21.23
2018-12-06T14:12:11.636Z,23.00
2018-12-06T14:15:16.186Z,27.03
2018-12-06T14:18:20.878Z,30.93
2018-12-06T14:21:25.411Z,20.70
2018-12-06T14:24:30.278Z,21.83
2018-12-06T14:27:34.863Z,20.13
2018-12-06T14:30:39.770Z,17.67
2018-12-06T14:33:47.343Z,18.30
2018-12-06T14:37:01.695Z,17.93
2018-12-06T14:40:00.356Z,17.03
2018-12-06T14:43:05.114Z,19.43
2018-12-06T14:46:09.835Z,20.37
2018-12-06T14:49:14.485Z,20.87
2018-12-06T14:52:19.098Z,22.00
2018-12-06T14:55:23.885Z,20.63
2018-12-06T14:58:28.450Z,25.43
2018-12-06T15:01:33.145Z,21.37
2018-12-06T15:04:37.917Z,20.50
2018-12-06T15:07:42.878Z,23.23
2018-12-06T15:10:47.495Z,21.70
2018-12-06T15:13:52.142Z,24.50
2018-12-06T15:20:12.814Z,23.33
2018-12-06T15:23:17.378Z,21.47
2018-12-06T15:26:22.146Z,19.10
2018-12-06T15:29:27.011Z,19.60
2018-12-06T15:32:32.442Z,19.20
2018-12-06T15:35:37.215Z,19.50
2018-12-06T15:38:42.197Z,18.63
2018-12-06T15:41:46.718Z,19.57
2018-12-06T15:44:51.545Z,19.53
2018-12-06T15:47:56.248Z,26.20
2018-12-06T15:51:01.033Z,25.47
2018-12-06T15:54:05.762Z,23.80
2018-12-06T15:57:10.467Z,23.77
2018-12-06T16:00:15.491Z,21.90
2018-12-06T16:03:20.187Z,20.33
2018-12-06T16:06:25.133Z,19.80
2018-12-06T16:09:29.838Z,19.90
2018-12-06T16:12:34.764Z,20.93
2018-12-06T16:15:42.033Z,20.00
2018-12-06T16:18:56.335Z,20.93
2018-12-06T16:22:01.435Z,20.40
2018-12-06T16:25:07.478Z,20.47
2018-12-06T16:28:12.246Z,20.57
2018-12-06T16:31:16.909Z,30.63
2018-12-06T16:34:21.808Z,23.77
2018-12-06T16:37:30.837Z,28.63
2018-12-06T16:40:36.811Z,19.60
2018-12-06T16:43:41.797Z,21.93
2018-12-06T16:46:46.459Z,21.63
2018-12-06T16:49:51.478Z,23.33
2018-12-06T16:52:56.467Z,23.67
2018-12-06T16:56:01.136Z,22.00
2018-12-06T16:59:06.096Z,21.73
2018-12-06T17:02:10.766Z,23.07
2018-12-06T17:05:15.468Z,22.50
2018-12-06T17:08:20.140Z,21.70
2018-12-06T17:11:25.448Z,20.80
2018-12-06T17:14:30.238Z,21.67
2018-12-06T17:17:34.763Z,21.47
2018-12-06T17:20:39.539Z,22.33
2018-12-06T17:23:44.119Z,21.93
2018-12-06T17:26:48.584Z,24.60
2018-12-06T17:29:53.431Z,30.03
2018-12-06T17:32:58.104Z,26.20
2018-12-06T17:36:02.716Z,28.17
2018-12-06T17:39:10.878Z,26.53
2018-12-06T17:42:16.389Z,24.90
2018-12-06T17:45:21.278Z,48.10
2018-12-06T17:48:25.843Z,37.80
2018-12-06T17:51:30.855Z,45.17
2018-12-06T17:54:38.069Z,41.60
2018-12-06T17:57:42.803Z,37.97
2018-12-06T18:00:54.938Z,37.00
2018-12-06T18:03:59.753Z,36.73
2018-12-06T18:07:07.038Z,40.57
2018-12-06T18:10:13.408Z,37.00
2018-12-06T18:13:18.174Z,38.37
2018-12-06T18:16:22.921Z,58.50
2018-12-06T18:19:27.576Z,37.80
2018-12-06T18:22:33.288Z,39.53
2018-12-06T18:25:38.512Z,38.40
2018-12-06T18:28:43.062Z,40.47
2018-12-06T18:31:47.745Z,42.53
2018-12-06T18:34:53.002Z,41.50
2018-12-06T18:37:57.694Z,37.30
2018-12-06T18:41:02.231Z,32.73
2018-12-06T18:44:07.038Z,28.93
2018-12-06T18:47:11.783Z,30.80
2018-12-06T18:50:16.621Z,33.17
2018-12-06T18:53:21.219Z,55.97
2018-12-06T18:56:26.205Z,32.50
2018-12-06T18:59:31.155Z,43.30
2018-12-06T19:02:35.812Z,34.10
2018-12-06T19:05:40.912Z,37.13
2018-12-06T19:08:45.666Z,31.10
2018-12-06T19:11:50.365Z,41.03
2018-12-06T19:14:54.950Z,32.87
2018-12-06T19:17:59.682Z,34.33
2018-12-06T19:21:04.523Z,36.53
2018-12-06T19:24:09.222Z,37.90
2018-12-06T19:27:14.012Z,37.07
2018-12-06T19:30:19.975Z,31.67
2018-12-06T19:33:24.606Z,29.17
2018-12-06T19:36:29.626Z,30.37
2018-12-06T19:39:34.358Z,29.80
2018-12-06T19:42:39.176Z,38.77
2018-12-06T19:45:44.029Z,34.47
2018-12-06T19:48:49.143Z,36.60
2018-12-06T19:51:54.284Z,37.47
2018-12-06T19:54:59.252Z,25.23
2018-12-06T19:58:04.134Z,26.30
2018-12-06T20:01:08.813Z,26.27
2018-12-06T20:04:13.800Z,36.30
2018-12-06T20:07:18.588Z,37.90
2018-12-06T20:10:23.776Z,40.80
2018-12-06T20:13:28.687Z,47.57
2018-12-06T20:16:33.439Z,48.07
2018-12-06T20:19:38.267Z,43.90
2018-12-06T20:22:43.143Z,44.53
2018-12-06T20:25:47.755Z,44.80
2018-12-06T20:28:52.464Z,41.27
2018-12-06T20:31:58.078Z,44.43
2018-12-06T20:35:02.895Z,41.93
2018-12-06T20:38:07.703Z,42.53
2018-12-06T20:41:12.303Z,46.53
2018-12-06T20:44:17.315Z,40.83
2018-12-06T20:47:21.934Z,43.93
2018-12-06T20:50:26.676Z,44.30
2018-12-06T20:53:31.563Z,43.80
2018-12-06T20:56:36.186Z,39.23
2018-12-06T20:59:41.150Z,37.57
2018-12-06T21:02:45.648Z,38.17
2018-12-06T21:05:50.630Z,37.63
2018-12-06T21:08:55.237Z,33.93
2018-12-06T21:11:59.881Z,34.93
2018-12-06T21:15:04.871Z,46.10
2018-12-06T21:18:09.564Z,41.73
2018-12-06T21:21:14.178Z,32.57
2018-12-06T21:24:18.880Z,28.00
2018-12-06T21:27:23.496Z,28.40
2018-12-06T21:30:28.103Z,24.47
2018-12-06T21:33:32.831Z,24.97
2018-12-06T21:36:37.535Z,24.47
2018-12-06T21:39:42.230Z,23.23
2018-12-06T21:42:46.919Z,19.77
2018-12-06T21:45:51.681Z,17.10
2018-12-06T21:48:56.393Z,19.33
2018-12-06T21:52:01.099Z,17.43
2018-12-06T21:55:06.544Z,18.97
2018-12-06T21:58:11.371Z,15.60
2018-12-06T22:01:15.991Z,18.17
2018-12-06T22:04:20.602Z,13.33
2018-12-06T22:07:25.344Z,19.50
2018-12-06T22:10:31.022Z,17.10
2018-12-06T22:13:35.757Z,4.13
2018-12-06T22:16:40.408Z,17.07
2018-12-06T22:19:45.175Z,7.57
2018-12-06T22:22:49.835Z,9.30
2018-12-06T22:25:54.405Z,6.60
2018-12-06T22:28:58.973Z,12.17
2018-12-06T22:32:03.595Z,8.57
2018-12-06T22:35:08.387Z,7.03
2018-12-06T22:38:12.988Z,4.97
2018-12-06T22:41:17.636Z,5.23
2018-12-06T22:44:22.488Z,4.70
2018-12-06T22:47:27.167Z,4.60
2018-12-06T22:50:31.905Z,5.13
2018-12-06T22:53:36.549Z,5.13
2018-12-06T22:56:41.162Z,5.33
2018-12-06T22:59:45.806Z,4.67
2018-12-06T23:02:50.385Z,10.17
2018-12-06T23:05:55.580Z,6.63
2018-12-06T23:09:00.189Z,20.47
2018-12-06T23:12:04.761Z,8.97
2018-12-06T23:15:09.625Z,6.77
2018-12-06T23:18:14.591Z,6.90
2018-12-06T23:21:19.173Z,6.10
2018-12-06T23:24:23.775Z,3.40
2018-12-06T23:27:28.456Z,3.47
2018-12-06T23:30:33.062Z,3.10
2018-12-06T23:33:37.601Z,2.90
2018-12-06T23:39:58.796Z,2.03
2018-12-06T23:43:03.735Z,2.57
2018-12-06T23:46:08.535Z,2.73
2018-12-06T23:49:13.129Z,2.10
2018-12-06T23:52:17.825Z,2.17
2018-12-06T23:55:22.382Z,2.30
2018-12-06T23:58:27.008Z,2.17
